createdAt,value
2018-11-01T00:02:12.701Z,101238.62
2018-11-01T00:04:40.877Z,101233.66
2018-11-01T00:07:09.013Z,101236.02
2018-11-01T00:09:37.168Z,101239.08
2018-11-01T00:12:05.273Z,101235.62
2018-11-01T00:14:33.412Z,101229.69
2018-11-01T00:17:01.564Z,101227.46
2018-11-01T00:19:29.701Z,101225.78
2018-11-01T00:21:57.806Z,101228.69
2018-11-01T00:24:25.956Z,101225.08
2018-11-01T00:26:54.174Z,101226.83
2018-11-01T00:29:22.301Z,101226.29
2018-11-01T00:31:50.469Z,101224.59
2018-11-01T00:34:18.654Z,101219.38
2018-11-01T00:36:46.804Z,101224.14
2018-11-01T00:39:14.964Z,101222.08
2018-11-01T00:41:43.125Z,101217.42
2018-11-01T00:44:11.438Z,101222.39
2018-11-01T00:46:39.553Z,101222.27
2018-11-01T00:49:07.698Z,101226.05
2018-11-01T00:51:35.826Z,101225.84
2018-11-01T00:54:04.003Z,101227.59
2018-11-01T00:56:32.168Z,101230.41
2018-11-01T00:59:00.411Z,101223.05
2018-11-01T01:01:28.537Z,101229.16
2018-11-01T01:03:56.688Z,101221.13
2018-11-01T01:06:24.833Z,101228.15
2018-11-01T01:08:52.965Z,101231.05
2018-11-01T01:11:21.077Z,101233.70
2018-11-01T01:13:49.227Z,101231.84
2018-11-01T01:16:17.370Z,101232.00
2018-11-01T01:18:45.607Z,101242.19
2018-11-01T01:21:13.677Z,101241.34
2018-11-01T01:23:42.081Z,101237.62
2018-11-01T01:26:10.214Z,101234.11
2018-11-01T01:28:38.349Z,101227.48
2018-11-01T01:31:06.457Z,101217.73
2018-11-01T01:33:34.639Z,101218.12
2018-11-01T01:36:02.792Z,101212.06
2018-11-01T01:38:30.895Z,101212.73
2018-11-01T01:40:59.050Z,101213.53
2018-11-01T01:43:27.178Z,101222.92
2018-11-01T01:45:55.313Z,101226.37
2018-11-01T01:48:23.514Z,101224.48
2018-11-01T01:50:51.881Z,101212.63
2018-11-01T01:53:19.851Z,101219.27
2018-11-01T01:55:48.006Z,101223.48
2018-11-01T01:58:16.081Z,101227.46
2018-11-01T02:00:44.169Z,101219.20
2018-11-01T02:03:12.272Z,101214.89
2018-11-01T02:05:40.404Z,101207.55
2018-11-01T02:08:08.533Z,101203.04
2018-11-01T02:10:36.639Z,101206.45
2018-11-01T02:13:04.973Z,101199.94
2018-11-01T02:15:33.076Z,101196.28
2018-11-01T02:18:01.177Z,101191.78
2018-11-01T02:20:29.264Z,101190.31
2018-11-01T02:22:57.336Z,101189.02
2018-11-01T02:25:25.440Z,101184.08
2018-11-01T02:27:58.931Z,101190.38
2018-11-01T02:30:27.030Z,101190.94
2018-11-01T02:32:55.085Z,101197.34
2018-11-01T02:35:23.196Z,101190.14
2018-11-01T02:37:51.389Z,101195.12
2018-11-01T02:40:19.418Z,101186.68
2018-11-01T02:42:47.545Z,101180.25
2018-11-01T02:45:16.120Z,101179.48
2018-11-01T02:47:44.244Z,101178.09
2018-11-01T02:50:13.213Z,101169.52
2018-11-01T02:52:41.315Z,101165.95
2018-11-01T02:55:09.964Z,101149.47
2018-11-01T02:57:38.069Z,101152.25
2018-11-01T03:00:08.349Z,101144.48
2018-11-01T03:02:36.462Z,101137.69
2018-11-01T03:05:04.932Z,101123.30
2018-11-01T03:07:33.041Z,101115.89
2018-11-01T03:10:01.125Z,101122.00
2018-11-01T03:12:29.234Z,101123.61
2018-11-01T03:14:57.333Z,101117.39
2018-11-01T03:17:25.408Z,101115.63
2018-11-01T03:19:53.520Z,101123.53
2018-11-01T03:22:21.643Z,101127.44
2018-11-01T03:24:49.716Z,101118.04
2018-11-01T03:27:17.816Z,101120.36
2018-11-01T03:29:45.932Z,101122.69
2018-11-01T03:32:14.061Z,101123.53
2018-11-01T03:34:42.205Z,101125.09
2018-11-01T03:37:10.339Z,101127.61
2018-11-01T03:39:38.420Z,101127.89
2018-11-01T03:42:06.495Z,101123.73
2018-11-01T03:44:34.623Z,101132.25
2018-11-01T03:47:02.721Z,101129.78
2018-11-01T03:49:30.856Z,101131.52
2018-11-01T03:51:59.054Z,101122.94
2018-11-01T03:54:27.062Z,101122.52
2018-11-01T03:56:55.195Z,101120.76
2018-11-01T03:59:23.287Z,101115.44
2018-11-01T04:01:51.625Z,101113.56
2018-11-01T04:04:19.766Z,101121.83
2018-11-01T04:06:47.847Z,101110.80
2018-11-01T04:09:15.935Z,101114.98
2018-11-01T04:11:44.048Z,101120.25
2018-11-01T04:14:12.183Z,101120.36
2018-11-01T04:16:40.340Z,101112.61
2018-11-01T04:19:08.402Z,101099.70
2018-11-01T04:21:36.769Z,101098.66
2018-11-01T04:24:05.141Z,101096.44
2018-11-01T04:26:33.228Z,101094.29
2018-11-01T04:29:01.386Z,101085.14
2018-11-01T04:31:29.399Z,101088.59
2018-11-01T04:33:57.592Z,101078.29
2018-11-01T04:36:26.032Z,101074.73
2018-11-01T04:38:54.404Z,101074.73
2018-11-01T04:41:22.529Z,101072.23
2018-11-01T04:43:51.410Z,101071.86
2018-11-01T04:46:19.518Z,101064.16
2018-11-01T04:48:47.591Z,101070.70
2018-11-01T04:51:16.512Z,101069.56
2018-11-01T04:53:44.615Z,101070.72
2018-11-01T04:56:12.725Z,101076.48
2018-11-01T04:58:40.876Z,101070.53
2018-11-01T05:01:09.017Z,101065.89
2018-11-01T05:03:37.183Z,101061.24
2018-11-01T05:06:05.612Z,101069.70
2018-11-01T05:08:33.721Z,101072.34
2018-11-01T05:11:01.800Z,101067.36
2018-11-01T05:13:29.902Z,101067.11
2018-11-01T05:15:57.995Z,101071.86
2018-11-01T05:18:26.139Z,101077.31
2018-11-01T05:20:54.231Z,101077.10
2018-11-01T05:23:22.342Z,101084.50
2018-11-01T05:25:50.507Z,101084.23
2018-11-01T05:28:18.545Z,101088.42
2018-11-01T05:30:46.673Z,101088.79
2018-11-01T05:33:14.970Z,101093.09
2018-11-01T05:35:43.128Z,101096.88
2018-11-01T05:38:11.244Z,101098.69
2018-11-01T05:40:39.358Z,101096.72
2018-11-01T05:43:07.420Z,101093.81
2018-11-01T05:45:35.538Z,101095.38
2018-11-01T05:48:03.623Z,101094.03
2018-11-01T05:50:31.696Z,101089.82
2018-11-01T05:52:59.796Z,101083.27
2018-11-01T05:55:27.920Z,101085.33
2018-11-01T05:57:55.997Z,101085.70
2018-11-01T06:00:30.879Z,101077.41
2018-11-01T06:03:00.009Z,101069.94
2018-11-01T06:05:28.131Z,101063.84
2018-11-01T06:07:57.704Z,101062.69
2018-11-01T06:10:25.798Z,101058.01
2018-11-01T06:12:53.878Z,101055.30
2018-11-01T06:15:22.257Z,101049.26
2018-11-01T06:17:50.400Z,101046.99
2018-11-01T06:20:18.481Z,101046.26
2018-11-01T06:22:46.577Z,101047.21
2018-11-01T06:25:14.719Z,101039.91
2018-11-01T06:27:42.817Z,101041.56
2018-11-01T06:30:13.535Z,101042.20
2018-11-01T06:32:41.691Z,101034.95
2018-11-01T06:35:19.863Z,101031.80
2018-11-01T06:37:47.937Z,101030.15
2018-11-01T06:40:16.078Z,101034.00
2018-11-01T06:42:44.377Z,101036.64
2018-11-01T06:45:12.544Z,101025.00
2018-11-01T06:47:40.834Z,101029.70
2018-11-01T06:50:09.226Z,101032.81
2018-11-01T06:52:37.335Z,101032.05
2018-11-01T06:55:07.428Z,101031.76
2018-11-01T06:57:35.652Z,101027.20
2018-11-01T07:00:03.959Z,101014.65
2018-11-01T07:02:32.406Z,101005.60
2018-11-01T07:05:00.513Z,101001.75
2018-11-01T07:07:28.721Z,100999.95
2018-11-01T07:09:56.790Z,100997.35
2018-11-01T07:12:24.952Z,100991.06
2018-11-01T07:14:53.070Z,100985.48
2018-11-01T07:17:21.893Z,100981.02
2018-11-01T07:19:50.050Z,100987.40
2018-11-01T07:22:18.784Z,100991.25
2018-11-01T07:24:46.897Z,100991.28
2018-11-01T07:27:14.989Z,100997.79
2018-11-01T07:29:43.168Z,101006.73
2018-11-01T07:32:11.252Z,101008.26
2018-11-01T07:34:39.437Z,101017.80
2018-11-01T07:37:08.022Z,101007.95
2018-11-01T07:39:36.147Z,101007.21
2018-11-01T07:42:04.373Z,101005.91
2018-11-01T07:44:32.796Z,101010.55
2018-11-01T07:47:01.025Z,101011.02
2018-11-01T07:49:29.654Z,101001.17
2018-11-01T07:51:57.808Z,100988.22
2018-11-01T07:54:26.017Z,100985.59
2018-11-01T07:56:54.223Z,100985.71
2018-11-01T07:59:22.749Z,100991.28
2018-11-01T08:01:50.892Z,100980.56
2018-11-01T08:04:18.994Z,100980.09
2018-11-01T08:06:47.534Z,100969.11
2018-11-01T08:09:15.619Z,100953.58
2018-11-01T08:11:44.084Z,100942.51
2018-11-01T08:14:12.126Z,100927.65
2018-11-01T08:16:40.253Z,100925.04
2018-11-01T08:19:08.405Z,100921.00
2018-11-01T08:21:36.581Z,100921.75
2018-11-01T08:24:05.392Z,100913.59
2018-11-01T08:26:33.668Z,100911.30
2018-11-01T08:29:01.768Z,100911.96
2018-11-01T08:31:29.864Z,100911.39
2018-11-01T08:33:57.996Z,100910.28
2018-11-01T08:36:26.867Z,100917.14
2018-11-01T08:38:55.168Z,100920.37
2018-11-01T08:41:23.476Z,100926.97
2018-11-01T08:43:51.590Z,100923.62
2018-11-01T08:46:20.111Z,100920.28
2018-11-01T08:48:48.288Z,100919.80
2018-11-01T08:51:16.418Z,100917.81
2018-11-01T08:53:44.568Z,100915.77
2018-11-01T08:56:12.699Z,100914.82
2018-11-01T08:58:40.799Z,100918.20
2018-11-01T09:01:08.960Z,100907.95
2018-11-01T09:03:37.217Z,100901.80
2018-11-01T09:06:05.942Z,100896.88
2018-11-01T09:08:34.147Z,100896.10
2018-11-01T09:11:02.797Z,100891.59
2018-11-01T09:13:30.925Z,100900.05
2018-11-01T09:15:59.079Z,100901.33
2018-11-01T09:18:27.208Z,100895.64
2018-11-01T09:20:55.377Z,100896.41
2018-11-01T09:23:23.471Z,100893.56
2018-11-01T09:25:51.646Z,100889.25
2018-11-01T09:28:19.724Z,100896.25
2018-11-01T09:30:47.865Z,100895.86
2018-11-01T09:33:15.952Z,100895.67
2018-11-01T09:35:44.105Z,100903.09
2018-11-01T09:38:12.203Z,100912.48
2018-11-01T09:40:41.080Z,100915.14
2018-11-01T09:43:09.240Z,100921.44
2018-11-01T09:45:37.419Z,100926.02
2018-11-01T09:48:05.547Z,100926.02
2018-11-01T09:50:33.656Z,100929.95
2018-11-01T09:53:01.777Z,100938.94
2018-11-01T09:55:29.922Z,100929.66
2018-11-01T09:57:58.129Z,100919.52
2018-11-01T10:00:26.288Z,100918.44
2018-11-01T10:02:54.411Z,100912.48
2018-11-01T10:05:22.561Z,100918.79
2018-11-01T10:07:50.704Z,100917.48
2018-11-01T10:10:18.833Z,100909.18
2018-11-01T10:12:46.961Z,100899.80
2018-11-01T10:15:15.215Z,100898.95
2018-11-01T10:17:43.630Z,100889.95
2018-11-01T10:20:12.658Z,100885.41
2018-11-01T10:22:41.174Z,100879.11
2018-11-01T10:25:10.470Z,100872.72
2018-11-01T10:27:38.713Z,100862.98
2018-11-01T10:30:09.714Z,100856.34
2018-11-01T10:32:37.885Z,100844.33
2018-11-01T10:35:06.420Z,100830.81
2018-11-01T10:37:34.665Z,100824.73
2018-11-01T10:40:02.950Z,100816.23
2018-11-01T10:42:31.098Z,100807.30
2018-11-01T10:44:59.255Z,100803.13
2018-11-01T10:47:27.414Z,100803.72
2018-11-01T10:49:55.488Z,100801.28
2018-11-01T10:52:23.587Z,100798.62
2018-11-01T10:54:51.785Z,100799.84
2018-11-01T10:57:19.912Z,100802.13
2018-11-01T10:59:47.996Z,100799.50
2018-11-01T11:02:20.281Z,100804.19
2018-11-01T11:04:48.448Z,100802.25
2018-11-01T11:07:16.566Z,100806.34
2018-11-01T11:09:44.703Z,100803.94
2018-11-01T11:12:13.050Z,100799.08
2018-11-01T11:14:41.198Z,100793.89
2018-11-01T11:17:09.248Z,100791.19
2018-11-01T11:19:37.361Z,100795.02
2018-11-01T11:22:05.491Z,100795.70
2018-11-01T11:24:33.627Z,100783.52
2018-11-01T11:27:01.766Z,100785.13
2018-11-01T11:29:29.851Z,100783.73
2018-11-01T11:31:57.964Z,100788.12
2018-11-01T11:34:26.182Z,100775.86
2018-11-01T11:36:54.286Z,100777.46
2018-11-01T11:39:22.389Z,100765.85
2018-11-01T11:41:50.475Z,100770.55
2018-11-01T11:44:18.580Z,100773.64
2018-11-01T11:47:50.169Z,100764.92
2018-11-01T11:50:18.291Z,100761.08
2018-11-01T11:52:46.611Z,100759.41
2018-11-01T11:55:14.761Z,100759.09
2018-11-01T11:57:43.117Z,100758.47
2018-11-01T12:00:13.436Z,100756.31
2018-11-01T12:02:41.711Z,100759.78
2018-11-01T12:05:09.873Z,100746.88
2018-11-01T12:07:38.272Z,100750.32
2018-11-01T12:10:07.407Z,100755.47
2018-11-01T12:12:35.595Z,100750.48
2018-11-01T12:15:03.668Z,100748.44
2018-11-01T12:17:31.748Z,100759.66
2018-11-01T12:19:59.897Z,100758.23
2018-11-01T12:22:28.113Z,100751.48
2018-11-01T12:24:56.164Z,100751.14
2018-11-01T12:27:24.244Z,100742.09
2018-11-01T12:29:52.350Z,100737.81
2018-11-01T12:32:20.455Z,100729.89
2018-11-01T12:34:48.600Z,100715.97
2018-11-01T12:37:16.740Z,100718.70
2018-11-01T12:39:44.821Z,100707.17
2018-11-01T12:42:12.956Z,100702.18
2018-11-01T12:44:41.070Z,100712.70
2018-11-01T12:47:09.188Z,100712.53
2018-11-01T12:49:37.336Z,100703.03
2018-11-01T12:52:05.549Z,100696.86
2018-11-01T12:54:33.909Z,100685.09
2018-11-01T12:57:02.036Z,100685.28
2018-11-01T12:59:30.216Z,100683.02
2018-11-01T13:01:58.299Z,100682.48
2018-11-01T13:04:26.430Z,100681.73
2018-11-01T13:06:54.492Z,100681.43
2018-11-01T13:09:22.571Z,100671.33
2018-11-01T13:11:50.683Z,100663.45
2018-11-01T13:14:18.779Z,100661.21
2018-11-01T13:16:46.880Z,100650.17
2018-11-01T13:19:14.980Z,100643.42
2018-11-01T13:21:43.073Z,100646.81
2018-11-01T13:24:11.188Z,100647.45
2018-11-01T13:26:40.211Z,100656.14
2018-11-01T13:29:08.395Z,100656.36
2018-11-01T13:31:36.445Z,100650.69
2018-11-01T13:34:04.599Z,100650.17
2018-11-01T13:36:32.718Z,100650.17
2018-11-01T13:39:00.837Z,100645.76
2018-11-01T13:41:28.980Z,100642.41
2018-11-01T13:43:57.097Z,100635.84
2018-11-01T13:46:25.256Z,100634.71
2018-11-01T13:48:53.368Z,100628.16
2018-11-01T13:51:21.562Z,100624.70
2018-11-01T13:53:49.685Z,100627.14
2018-11-01T13:56:17.847Z,100623.09
2018-11-01T13:58:46.078Z,100624.40
2018-11-01T14:01:14.218Z,100624.98
2018-11-01T14:03:42.583Z,100626.56
2018-11-01T14:06:10.714Z,100624.97
2018-11-01T14:08:38.796Z,100621.66
2018-11-01T14:11:06.927Z,100622.34
2018-11-01T14:13:35.125Z,100632.90
2018-11-01T14:16:03.027Z,100621.66
2018-11-01T14:18:31.103Z,100609.44
2018-11-01T14:20:59.217Z,100609.80
2018-11-01T14:23:27.328Z,100607.83
2018-11-01T14:25:55.409Z,100600.34
2018-11-01T14:28:23.505Z,100601.73
2018-11-01T14:30:51.584Z,100609.30
2018-11-01T14:33:19.724Z,100611.91
2018-11-01T14:35:47.800Z,100608.75
2018-11-01T14:38:15.969Z,100610.66
2018-11-01T14:40:44.064Z,100599.76
2018-11-01T14:43:12.241Z,100600.84
2018-11-01T14:45:40.321Z,100605.25
2018-11-01T14:48:08.403Z,100594.50
2018-11-01T14:50:36.569Z,100603.91
2018-11-01T14:53:06.152Z,100609.18
2018-11-01T14:55:34.845Z,100611.30
2018-11-01T14:58:03.202Z,100607.98
2018-11-01T15:00:30.321Z,100615.86
2018-11-01T15:02:58.387Z,100609.03
2018-11-01T15:05:26.533Z,100604.84
2018-11-01T15:07:54.621Z,100608.86
2018-11-01T15:10:22.684Z,100597.58
2018-11-01T15:12:50.861Z,100599.44
2018-11-01T15:15:18.973Z,100607.52
2018-11-01T15:17:47.065Z,100605.45
2018-11-01T15:20:15.158Z,100608.23
2018-11-01T15:22:45.088Z,100595.87
2018-11-01T15:25:13.154Z,100588.36
2018-11-01T15:27:41.220Z,100575.48
2018-11-01T15:30:11.283Z,100563.92
2018-11-01T15:32:39.328Z,100561.66
2018-11-01T15:35:07.597Z,100568.28
2018-11-01T15:37:36.043Z,100576.55
2018-11-01T15:40:04.652Z,100584.64
2018-11-01T15:42:32.605Z,100597.04
2018-11-01T15:45:00.713Z,100590.20
2018-11-01T15:47:28.824Z,100579.29
2018-11-01T15:49:56.922Z,100570.34
2018-11-01T15:52:25.024Z,100571.78
2018-11-01T15:54:53.197Z,100557.88
2018-11-01T15:57:21.332Z,100552.27
2018-11-01T15:59:49.439Z,100552.27
2018-11-01T16:02:17.649Z,100548.67
2018-11-01T16:04:45.707Z,100535.41
2018-11-01T16:07:13.824Z,100539.78
2018-11-01T16:09:41.937Z,100535.86
2018-11-01T16:12:10.021Z,100533.88
2018-11-01T16:14:38.150Z,100527.80
2018-11-01T16:17:06.468Z,100527.52
2018-11-01T16:19:34.592Z,100522.33
2018-11-01T16:22:02.676Z,100523.38
2018-11-01T16:24:30.816Z,100520.77
2018-11-01T16:26:58.970Z,100527.59
2018-11-01T16:29:27.860Z,100526.71
2018-11-01T16:31:56.042Z,100526.54
2018-11-01T16:34:24.143Z,100525.45
2018-11-01T16:36:52.253Z,100533.45
2018-11-01T16:39:20.339Z,100536.95
2018-11-01T16:41:48.500Z,100536.45
2018-11-01T16:44:16.670Z,100527.30
2018-11-01T16:46:44.747Z,100543.06
2018-11-01T16:49:13.242Z,100544.66
2018-11-01T16:51:41.378Z,100549.20
2018-11-01T16:54:09.520Z,100556.41
2018-11-01T16:56:37.665Z,100545.87
2018-11-01T16:59:05.977Z,100543.10
2018-11-01T17:01:34.104Z,100534.20
2018-11-01T17:04:02.223Z,100525.52
2018-11-01T17:06:30.354Z,100524.22
2018-11-01T17:08:58.473Z,100530.83
2018-11-01T17:11:26.552Z,100532.60
2018-11-01T17:13:54.675Z,100529.91
2018-11-01T17:16:22.757Z,100537.28
2018-11-01T17:18:50.867Z,100540.66
2018-11-01T17:21:18.969Z,100540.95
2018-11-01T17:23:47.081Z,100533.73
2018-11-01T17:26:15.172Z,100547.35
2018-11-01T17:28:43.285Z,100541.28
2018-11-01T17:31:11.401Z,100541.83
2018-11-01T17:33:39.881Z,100534.04
2018-11-01T17:36:07.979Z,100540.95
2018-11-01T17:38:36.086Z,100539.34
2018-11-01T17:41:04.229Z,100542.13
2018-11-01T17:43:32.369Z,100543.27
2018-11-01T17:46:00.582Z,100545.37
2018-11-01T17:48:28.683Z,100556.88
2018-11-01T17:50:56.853Z,100557.37
2018-11-01T17:53:24.943Z,100563.66
2018-11-01T17:55:53.080Z,100571.55
2018-11-01T17:58:21.200Z,100571.41
2018-11-01T18:00:49.304Z,100574.25
2018-11-01T18:03:17.448Z,100571.48
2018-11-01T18:05:45.696Z,100568.25
2018-11-01T18:08:13.818Z,100563.67
2018-11-01T18:10:42.025Z,100562.20
2018-11-01T18:13:10.184Z,100558.73
2018-11-01T18:15:38.473Z,100560.03
2018-11-01T18:18:06.609Z,100570.66
2018-11-01T18:20:34.720Z,100562.71
2018-11-01T18:23:02.897Z,100565.58
2018-11-01T18:25:30.957Z,100557.97
2018-11-01T18:27:59.506Z,100555.72
2018-11-01T18:30:27.687Z,100562.59
2018-11-01T18:32:56.099Z,100565.41
2018-11-01T18:35:24.144Z,100558.57
2018-11-01T18:37:52.317Z,100558.65
2018-11-01T18:40:20.343Z,100559.34
2018-11-01T18:42:48.485Z,100566.02
2018-11-01T18:45:16.650Z,100557.66
2018-11-01T18:47:45.170Z,100557.34
2018-11-01T18:50:14.758Z,100552.89
2018-11-01T18:52:42.908Z,100554.50
2018-11-01T18:55:11.854Z,100558.81
2018-11-01T18:57:40.105Z,100564.18
2018-11-01T19:00:10.358Z,100564.64
2018-11-01T19:02:38.557Z,100566.48
2018-11-01T19:05:07.348Z,100572.92
2018-11-01T19:07:35.472Z,100573.94
2018-11-01T19:10:03.680Z,100574.47
2018-11-01T19:12:32.056Z,100573.74
2018-11-01T19:15:00.265Z,100575.20
2018-11-01T19:17:28.405Z,100569.06
2018-11-01T19:19:56.623Z,100565.53
2018-11-01T19:22:24.976Z,100565.00
2018-11-01T19:24:53.195Z,100572.05
2018-11-01T19:27:21.701Z,100564.61
2018-11-01T19:29:49.720Z,100573.85
2018-11-01T19:32:17.842Z,100566.94
2018-11-01T19:34:45.980Z,100557.50
2018-11-01T19:37:14.046Z,100562.29
2018-11-01T19:39:42.207Z,100562.87
2018-11-01T19:42:10.345Z,100557.08
2018-11-01T19:44:38.556Z,100559.04
2018-11-01T19:47:06.704Z,100551.55
2018-11-01T19:49:34.924Z,100552.59
2018-11-01T19:52:03.113Z,100546.27
2018-11-01T19:54:31.351Z,100553.38
2018-11-01T19:56:59.492Z,100548.86
2018-11-01T19:59:27.720Z,100556.75
2018-11-01T20:01:55.872Z,100558.30
2018-11-01T20:04:24.152Z,100559.31
2018-11-01T20:06:52.156Z,100554.76
2018-11-01T20:09:20.860Z,100555.16
2018-11-01T20:11:49.057Z,100544.56
2018-11-01T20:14:17.173Z,100546.88
2018-11-01T20:16:45.331Z,100553.30
2018-11-01T20:19:13.525Z,100554.45
2018-11-01T20:21:41.704Z,100564.41
2018-11-01T20:24:09.676Z,100564.14
2018-11-01T20:26:37.796Z,100563.11
2018-11-01T20:29:06.457Z,100566.44
2018-11-01T20:31:34.583Z,100565.35
2018-11-01T20:34:02.688Z,100564.48
2018-11-01T20:36:30.803Z,100563.75
2018-11-01T20:38:58.922Z,100570.25
2018-11-01T20:41:27.049Z,100574.12
2018-11-01T20:43:55.204Z,100574.30
2018-11-01T20:46:23.388Z,100581.17
2018-11-01T20:48:51.639Z,100586.98
2018-11-01T20:51:19.739Z,100589.30
2018-11-01T20:53:47.883Z,100591.13
2018-11-01T20:56:16.029Z,100597.50
2018-11-01T20:58:44.149Z,100597.30
2018-11-01T21:01:12.716Z,100595.67
2018-11-01T21:03:41.864Z,100609.23
2018-11-01T21:06:10.051Z,100609.23
2018-11-01T21:08:38.225Z,100607.78
2018-11-01T21:11:06.500Z,100614.13
2018-11-01T21:13:34.632Z,100620.07
2018-11-01T21:16:02.768Z,100618.59
2018-11-01T21:18:30.894Z,100616.53
2018-11-01T21:20:59.011Z,100613.61
2018-11-01T21:23:27.105Z,100618.30
2018-11-01T21:25:55.380Z,100621.81
2018-11-01T21:28:24.122Z,100615.94
2018-11-01T21:30:52.294Z,100614.31
2018-11-01T21:33:20.507Z,100627.34
2018-11-01T21:35:48.872Z,100627.73
2018-11-01T21:38:16.893Z,100622.41
2018-11-01T21:40:45.025Z,100618.43
2018-11-01T21:43:13.253Z,100619.07
2018-11-01T21:45:41.388Z,100631.31
2018-11-01T21:48:09.600Z,100626.17
2018-11-01T21:50:37.743Z,100623.70
2018-11-01T21:53:06.206Z,100633.97
2018-11-01T21:55:34.261Z,100634.56
2018-11-01T21:58:02.364Z,100627.08
2018-11-01T22:00:30.454Z,100627.52
2018-11-01T22:02:58.591Z,100641.24
2018-11-01T22:05:26.744Z,100641.27
2018-11-01T22:07:54.859Z,100645.69
2018-11-01T22:10:22.999Z,100646.13
2018-11-01T22:12:51.133Z,100652.05
2018-11-01T22:15:19.247Z,100644.37
2018-11-01T22:17:47.421Z,100641.70
2018-11-01T22:20:15.643Z,100650.03
2018-11-01T22:22:43.845Z,100661.74
2018-11-01T22:25:11.975Z,100669.62
2018-11-01T22:27:40.204Z,100667.86
2018-11-01T22:30:09.681Z,100669.68
2018-11-01T22:32:37.859Z,100651.27
2018-11-01T22:35:06.053Z,100657.91
2018-11-01T22:37:34.146Z,100662.16
2018-11-01T22:40:02.250Z,100665.34
2018-11-01T22:42:30.372Z,100668.86
2018-11-01T22:44:58.475Z,100664.44
2018-11-01T22:47:26.572Z,100675.69
2018-11-01T22:49:54.704Z,100676.93
2018-11-01T22:52:22.857Z,100686.14
2018-11-01T22:54:50.962Z,100681.45
2018-11-01T22:57:19.073Z,100683.02
2018-11-01T22:59:47.253Z,100688.62
2018-11-01T23:02:15.303Z,100687.09
2018-11-01T23:04:43.432Z,100680.70
2018-11-01T23:07:11.576Z,100683.64
2018-11-01T23:09:39.707Z,100675.95
2018-11-01T23:12:07.856Z,100681.09
2018-11-01T23:14:35.992Z,100690.69
2018-11-01T23:17:04.144Z,100692.17
2018-11-01T23:19:32.275Z,100689.81
2018-11-01T23:22:00.397Z,100693.97
2018-11-01T23:24:28.501Z,100690.97
2018-11-01T23:26:56.656Z,100689.74
2018-11-01T23:29:24.744Z,100689.48
2018-11-01T23:31:52.837Z,100701.70
2018-11-01T23:34:20.976Z,100702.16
2018-11-01T23:36:54.412Z,100707.16
2018-11-01T23:39:28.029Z,100715.75
2018-11-01T23:42:01.478Z,100714.19
2018-11-01T23:44:35.089Z,100715.63
2018-11-01T23:47:08.644Z,100720.63
2018-11-01T23:49:41.128Z,100733.43
2018-11-01T23:52:14.017Z,100733.82
2018-11-01T23:54:42.278Z,100733.30
2018-11-01T23:57:10.400Z,100734.67
2018-11-01T23:59:38.591Z,100731.67
